Time;durP1;ratioP1;P1;durP2;ratioP2;P2;SDS_P1;SDS_P2;PMS_P1;PMS_P2;Temp;Humidity;BMP_temperature;BMP_pressure;BME280_temperature;BME280_humidity;BME280_pressure;Samples;Min_cycle;Max_cycle;Signal;HPM_P1;HPM_P2
2022/03/18 00:01:23;;;;;;;10.30;2.63;;;;;;;6.14;70.12;102332.53;5085673;28;20073;-43
2022/03/18 00:03:52;;;;;;;13.68;3.45;;;;;;;6.12;70.24;102336.72;5086026;28;20048;-43
2022/03/18 00:06:19;;;;;;;10.88;3.30;;;;;;;6.10;70.99;102340.91;5088663;28;20047;-42
2022/03/18 00:08:46;;;;;;;9.95;3.92;;;;;;;6.08;70.11;102339.94;5087418;28;20491;-46
2022/03/18 00:11:15;;;;;;;9.30;3.65;;;;;;;6.06;70.44;102333.84;5086386;28;20387;-41
2022/03/18 00:13:41;;;;;;;7.63;2.78;;;;;;;6.03;70.39;102338.78;5084888;28;20522;-44
2022/03/18 00:16:08;;;;;;;8.43;2.92;;;;;;;6.00;70.13;102328.31;5086366;28;20048;-44
2022/03/18 00:18:35;;;;;;;8.60;2.45;;;;;;;5.98;71.32;102328.22;5083636;28;20044;-44
2022/03/18 00:21:02;;;;;;;10.40;4.07;;;;;;;5.97;70.95;102343.59;5085292;28;20441;-40
2022/03/18 00:23:29;;;;;;;9.60;3.35;;;;;;;5.96;70.69;102336.69;5081442;28;20104;-44
2022/03/18 00:25:56;;;;;;;9.98;2.97;;;;;;;5.97;71.08;102329.03;5083628;28;20044;-47
2022/03/18 00:28:22;;;;;;;14.27;3.67;;;;;;;6.00;71.27;102343.75;5088023;28;20059;-44
2022/03/18 00:30:49;;;;;;;10.73;3.50;;;;;;;6.00;71.51;102339.50;5086243;28;20051;-41
2022/03/18 00:33:16;;;;;;;14.80;3.58;;;;;;;6.05;72.03;102342.38;5087089;28;20048;-45
2022/03/18 00:35:42;;;;;;;12.38;3.88;;;;;;;6.12;72.27;102354.72;5088306;28;20093;-42
2022/03/18 00:38:09;;;;;;;13.95;3.35;;;;;;;6.16;71.33;102355.78;5087122;28;20793;-47
2022/03/18 00:40:36;;;;;;;10.85;4.45;;;;;;;6.17;71.65;102348.16;5079984;28;20060;-43
2022/03/18 00:43:03;;;;;;;12.90;4.20;;;;;;;6.20;71.81;102351.66;5081060;28;20055;-45
2022/03/18 00:45:31;;;;;;;15.68;4.53;;;;;;;6.17;71.81;102343.00;5084577;28;20130;-52
2022/03/18 00:53:31;;;;;;;10.52;3.90;;;;;;;6.10;71.14;102382.06;5082741;28;20114;-42
2022/03/18 00:55:58;;;;;;;9.65;3.72;;;;;;;6.09;71.77;102385.47;5083535;28;20496;-44
2022/03/18 00:58:24;;;;;;;15.77;4.18;;;;;;;6.08;71.06;102375.94;5085302;28;20106;-43
2022/03/18 01:00:51;;;;;;;9.40;3.78;;;;;;;6.07;71.02;102381.91;5086852;28;20184;-43
2022/03/18 01:03:19;;;;;;;18.45;5.57;;;;;;;6.04;71.31;102380.06;5085395;28;20051;-43
2022/03/18 01:05:46;;;;;;;14.63;4.93;;;;;;;6.00;72.05;102375.53;5081799;28;20070;-47
2022/03/18 01:08:12;;;;;;;15.07;4.07;;;;;;;5.98;71.40;102383.97;5078080;28;20055;-46
2022/03/18 01:10:39;;;;;;;17.08;4.78;;;;;;;5.95;71.68;102391.50;5085292;28;20094;-44
2022/03/18 01:13:06;;;;;;;15.95;4.25;;;;;;;5.95;72.69;102391.50;5085595;28;20101;-46
2022/03/18 01:15:33;;;;;;;12.68;4.28;;;;;;;5.95;71.71;102396.66;5085345;28;20048;-43
2022/03/18 01:18:00;;;;;;;12.20;4.10;;;;;;;5.93;72.74;102396.56;5080553;28;20048;-46
2022/03/18 01:20:27;;;;;;;19.75;4.43;;;;;;;5.92;71.46;102398.25;5080762;28;20446;-42
2022/03/18 01:22:54;;;;;;;10.38;4.28;;;;;;;5.89;71.97;102398.09;5083511;28;20136;-46
2022/03/18 01:25:20;;;;;;;18.48;5.18;;;;;;;5.88;72.75;102411.75;5084984;28;20069;-47
2022/03/18 01:27:47;;;;;;;17.20;4.90;;;;;;;5.85;72.00;102411.59;5083979;28;20687;-44
2022/03/18 01:30:14;;;;;;;12.50;4.20;;;;;;;5.82;72.44;102421.72;5084959;28;20044;-44
2022/03/18 01:32:41;;;;;;;15.05;4.05;;;;;;;5.78;71.92;102427.50;5082173;28;20165;-46
2022/03/18 01:35:10;;;;;;;10.75;4.10;;;;;;;5.76;72.77;102431.66;5081443;28;20089;-40
2022/03/18 01:37:36;;;;;;;10.55;3.88;;;;;;;5.73;72.98;102426.31;5082699;28;20048;-43
2022/03/18 01:40:04;;;;;;;16.33;4.22;;;;;;;5.71;72.39;102430.50;5082133;28;20552;-45
2022/03/18 01:42:31;;;;;;;16.17;4.18;;;;;;;5.69;72.06;102424.38;5086181;28;20036;-45
2022/03/18 01:44:57;;;;;;;20.30;4.75;;;;;;;5.67;71.94;102426.88;5085711;28;20044;-43
2022/03/18 01:47:24;;;;;;;18.05;5.35;;;;;;;5.64;71.76;102435.31;5083523;28;20048;-40
2022/03/18 01:49:51;;;;;;;14.82;3.97;;;;;;;5.62;72.05;102431.78;5080838;28;20430;-45
2022/03/18 01:52:18;;;;;;;19.98;5.38;;;;;;;5.62;72.80;102434.34;5084401;28;20044;-43
2022/03/18 01:54:45;;;;;;;12.45;4.20;;;;;;;5.60;72.89;102435.94;5086130;28;20044;-46
2022/03/18 01:57:14;;;;;;;14.20;4.22;;;;;;;5.58;73.38;102441.78;5084794;28;20108;-44
2022/03/18 01:59:41;;;;;;;11.27;4.70;;;;;;;5.57;72.70;102438.31;5082782;28;20060;-45
2022/03/18 02:02:08;;;;;;;15.98;4.78;;;;;;;5.57;73.02;102446.03;5083806;28;20137;-43
2022/03/18 02:04:36;;;;;;;11.95;4.60;;;;;;;5.55;73.19;102450.22;5082074;28;20484;-44
2022/03/18 02:07:03;;;;;;;12.48;4.32;;;;;;;5.54;72.44;102451.00;5080706;28;20101;-45
2022/03/18 02:09:31;;;;;;;13.38;4.55;;;;;;;5.51;72.43;102456.84;5081516;28;20048;-49
2022/03/18 02:11:58;;;;;;;18.08;4.20;;;;;;;5.50;73.19;102464.47;5085492;28;20122;-45
2022/03/18 02:17:12;;;;;;;10.75;4.40;;;;;;;5.45;72.47;102447.91;5017448;27;20405;-46
2022/03/18 02:19:40;;;;;;;18.38;4.53;;;;;;;5.44;73.15;102443.59;4998098;28;20078;-45
2022/03/18 02:22:10;;;;;;;20.38;5.05;;;;;;;5.42;72.79;102455.44;5001705;28;20050;-42
2022/03/18 02:24:38;;;;;;;17.58;4.90;;;;;;;5.42;72.88;102460.59;4996892;28;20054;-46
2022/03/18 02:27:05;;;;;;;13.70;4.75;;;;;;;5.40;72.73;102453.69;4996388;28;20046;-46
2022/03/18 02:29:32;;;;;;;14.75;4.88;;;;;;;5.40;73.26;102461.38;4998543;28;20109;-47
2022/03/18 02:32:00;;;;;;;17.00;5.03;;;;;;;5.38;72.71;102455.25;5000599;28;20062;-44
2022/03/18 02:34:28;;;;;;;15.73;5.13;;;;;;;5.38;72.73;102459.53;4999258;28;20057;-47
2022/03/18 02:36:55;;;;;;;17.00;4.97;;;;;;;5.38;73.51;102470.69;4996509;28;20105;-42
2022/03/18 02:39:21;;;;;;;21.35;4.43;;;;;;;5.36;73.34;102456.88;5000829;28;20804;-43
2022/03/18 02:41:48;;;;;;;14.30;4.60;;;;;;;5.36;73.69;102461.13;4994824;28;20096;-47
2022/03/18 02:44:15;;;;;;;18.20;6.13;;;;;;;5.34;73.71;102463.59;4998140;28;20104;-41
2022/03/18 02:46:42;;;;;;;16.08;4.97;;;;;;;5.33;73.71;102469.53;4994170;28;20050;-41
2022/03/18 02:49:08;;;;;;;15.27;5.07;;;;;;;5.30;73.07;102477.06;4995364;28;20100;-45
2022/03/18 02:51:53;;;;;;;22.08;5.15;;;;;;;5.30;73.89;102477.06;4996474;28;20041;-47
2022/03/18 02:54:20;;;;;;;20.35;4.85;;;;;;;5.29;73.05;102477.88;5000430;28;20100;-43
2022/03/18 02:56:47;;;;;;;22.10;5.88;;;;;;;5.26;72.85;102475.13;5001269;28;20046;-41
2022/03/18 02:59:14;;;;;;;17.98;5.00;;;;;;;5.26;73.30;102480.25;4993847;28;20089;-45
2022/03/18 03:01:40;;;;;;;17.30;5.38;;;;;;;5.23;73.66;102473.25;5000501;28;20053;-46
2022/03/18 03:04:08;;;;;;;18.63;5.43;;;;;;;5.21;73.37;102476.53;4997688;28;20133;-42
2022/03/18 03:09:21;;;;;;;15.50;5.63;;;;;;;5.18;73.40;102477.25;4998427;28;20092;-42
2022/03/18 03:11:48;;;;;;;17.83;6.22;;;;;;;5.14;73.46;102465.03;4996730;28;20189;-42
2022/03/18 03:14:15;;;;;;;15.05;5.50;;;;;;;5.11;72.97;102468.31;4998650;28;20058;-43
2022/03/18 03:16:42;;;;;;;20.20;5.22;;;;;;;5.08;73.40;102478.41;4998898;28;20049;-48
2022/03/18 03:19:09;;;;;;;86.93;5.68;;;;;;;5.05;73.70;102479.88;4997287;28;20495;-43
2022/03/18 03:21:37;;;;;;;28.88;4.18;;;;;;;4.97;73.64;102482.88;4999371;28;20054;-45
2022/03/18 03:24:04;;;;;;;45.42;5.03;;;;;;;4.92;73.05;102483.38;4997383;28;20089;-41
2022/03/18 03:26:31;;;;;;;26.13;4.55;;;;;;;4.86;73.01;102484.81;4993873;28;20046;-43
2022/03/18 03:28:58;;;;;;;12.82;4.40;;;;;;;4.79;72.88;102477.53;4982438;28;20062;-45
2022/03/18 03:31:25;;;;;;;17.60;4.35;;;;;;;4.76;73.18;102467.97;4986072;28;20050;-45
2022/03/18 03:33:52;;;;;;;17.85;4.68;;;;;;;4.75;73.67;102476.47;4987540;28;20141;-41
2022/03/18 03:36:19;;;;;;;13.30;4.57;;;;;;;4.78;74.04;102480.91;4988623;28;20050;-43
2022/03/18 03:38:45;;;;;;;13.73;4.32;;;;;;;4.79;73.54;102492.94;4984818;28;20112;-44
2022/03/18 03:41:12;;;;;;;16.25;4.32;;;;;;;4.81;73.77;102496.50;4985726;28;20050;-41
2022/03/18 03:43:38;;;;;;;19.67;4.95;;;;;;;4.82;73.53;102492.22;4994916;28;20062;-45
2022/03/18 03:46:22;;;;;;;12.98;4.28;;;;;;;4.79;73.43;102487.78;4982805;28;20597;-48
2022/03/18 03:48:49;;;;;;;11.55;4.68;;;;;;;4.77;73.82;102494.53;4985779;28;20042;-45
2022/03/18 03:51:16;;;;;;;13.40;3.95;;;;;;;4.75;73.24;102488.41;4984444;28;20058;-44
2022/03/18 03:53:42;;;;;;;12.90;4.13;;;;;;;4.75;73.62;102503.81;4986439;28;20050;-46
2022/03/18 03:56:09;;;;;;;15.82;4.25;;;;;;;4.72;73.43;102501.06;4984845;28;20050;-48
2022/03/18 03:58:35;;;;;;;19.08;3.88;;;;;;;4.72;73.58;102509.66;4983732;28;20046;-44
2022/03/18 04:01:03;;;;;;;14.98;3.28;;;;;;;4.73;73.80;102508.84;4981804;28;20058;-44
2022/03/18 04:03:30;;;;;;;11.98;3.70;;;;;;;4.75;74.24;102511.50;4985464;28;20056;-47
2022/03/18 04:05:57;;;;;;;29.38;4.80;;;;;;;4.76;74.03;102508.16;4977150;28;20055;-42
2022/03/18 04:08:23;;;;;;;38.53;3.63;;;;;;;4.74;74.22;102507.19;4980310;28;20564;-41
2022/03/18 04:10:50;;;;;;;44.33;3.72;;;;;;;4.66;73.89;102505.84;4983117;28;20050;-43
2022/03/18 04:13:17;;;;;;;5.75;2.40;;;;;;;4.59;73.86;102504.56;4983767;28;20108;-41
2022/03/18 04:15:44;;;;;;;8.32;2.85;;;;;;;4.53;73.46;102502.50;4981720;28;20058;-41
2022/03/18 04:18:10;;;;;;;16.67;4.20;;;;;;;4.49;73.55;102510.78;4982224;28;20439;-45
2022/03/18 04:20:37;;;;;;;16.83;4.38;;;;;;;4.51;73.81;102519.47;4986500;28;20058;-46
2022/03/18 04:23:04;;;;;;;15.35;4.25;;;;;;;4.52;74.07;102516.13;4986263;28;20380;-45
2022/03/18 04:25:30;;;;;;;20.35;4.72;;;;;;;4.57;74.18;102522.44;4984548;28;20395;-46
2022/03/18 04:27:58;;;;;;;67.70;4.05;;;;;;;4.43;73.49;102528.38;4983490;28;20042;-48
2022/03/18 04:30:25;;;;;;;48.55;3.30;;;;;;;4.27;73.61;102530.00;4983637;28;20109;-47
2022/03/18 04:32:52;;;;;;;26.73;2.85;;;;;;;4.16;72.98;102541.25;4986668;28;20482;-42
2022/03/18 04:35:18;;;;;;;25.73;3.38;;;;;;;4.09;73.20;102543.41;4983356;28;20104;-45
2022/03/18 04:37:45;;;;;;;81.05;4.80;;;;;;;4.03;73.20;102553.28;4986237;28;20073;-41
2022/03/18 04:40:13;;;;;;;19.45;3.30;;;;;;;3.97;73.47;102543.50;4981541;28;20095;-42
2022/03/18 04:42:41;;;;;;;13.75;3.05;;;;;;;3.94;72.85;102552.66;4984623;28;20120;-44
2022/03/18 04:45:09;;;;;;;10.68;3.78;;;;;;;3.93;73.78;102561.16;4986406;28;20076;-51
2022/03/18 04:47:35;;;;;;;12.13;3.67;;;;;;;3.90;73.26;102561.84;4986273;28;20050;-43
2022/03/18 04:50:04;;;;;;;8.25;3.30;;;;;;;3.88;73.13;102571.09;4985002;28;20054;-42
2022/03/18 04:52:30;;;;;;;8.57;3.20;;;;;;;3.86;73.56;102565.88;4981995;28;20101;-46
2022/03/18 04:54:58;;;;;;;7.97;3.53;;;;;;;3.81;72.77;102558.66;4984401;28;20050;-44
2022/03/18 04:57:24;;;;;;;11.43;3.90;;;;;;;3.78;73.29;102567.03;4982798;28;20046;-44
2022/03/18 04:59:52;;;;;;;10.88;3.92;;;;;;;3.77;72.94;102575.53;4985922;28;20054;-45
2022/03/18 05:02:20;;;;;;;14.05;3.20;;;;;;;3.76;73.57;102589.16;4984737;28;20051;-42
2022/03/18 05:04:48;;;;;;;26.25;2.75;;;;;;;3.71;72.85;102593.06;4983624;28;20047;-44
2022/03/18 05:07:16;;;;;;;13.50;2.47;;;;;;;3.65;73.18;102606.34;4982664;28;20053;-42
2022/03/18 05:09:45;;;;;;;15.88;2.67;;;;;;;3.56;72.52;102606.66;4981650;28;20058;-43
2022/03/18 05:12:14;;;;;;;19.65;2.55;;;;;;;3.49;72.51;102609.56;4981750;28;20054;-46
2022/03/18 05:14:41;;;;;;;5.88;2.45;;;;;;;3.44;73.36;102613.47;4967927;28;20050;-42
2022/03/18 05:17:09;;;;;;;11.27;2.67;;;;;;;3.43;73.52;102609.16;4984912;28;20046;-46
2022/03/18 05:19:37;;;;;;;79.22;5.20;;;;;;;3.42;74.01;102609.94;4981887;28;20101;-48
2022/03/18 05:22:06;;;;;;;25.50;2.88;;;;;;;3.36;72.91;102619.75;4984032;28;20042;-45
2022/03/18 05:24:33;;;;;;;38.53;4.10;;;;;;;3.27;72.69;102612.34;4980770;28;20505;-43
2022/03/18 05:27:00;;;;;;;11.00;3.08;;;;;;;3.22;73.52;102619.72;4984119;28;20525;-49
2022/03/18 05:29:27;;;;;;;20.05;3.03;;;;;;;3.19;72.87;102629.75;4985578;28;20046;-41
2022/03/18 05:31:54;;;;;;;21.83;2.80;;;;;;;3.16;73.46;102634.66;4985016;28;20398;-42
2022/03/18 05:34:21;;;;;;;8.05;2.30;;;;;;;3.13;73.03;102644.66;4979691;28;20419;-46
2022/03/18 05:36:47;;;;;;;26.50;2.83;;;;;;;3.08;73.77;102658.03;4981078;28;20156;-42
2022/03/18 05:39:14;;;;;;;37.33;2.78;;;;;;;3.03;73.28;102654.28;4986815;28;20074;-45
2022/03/18 05:41:43;;;;;;;6.43;2.05;;;;;;;3.01;73.20;102644.72;4984389;28;20108;-48
2022/03/18 05:44:10;;;;;;;17.50;3.00;;;;;;;2.99;73.80;102642.03;4981443;28;20053;-43
2022/03/18 05:46:41;;;;;;;42.08;3.38;;;;;;;2.99;73.16;102661.63;4982153;28;20482;-41
2022/03/18 05:49:08;;;;;;;68.15;3.38;;;;;;;2.93;73.66;102652.75;4984262;28;20133;-50
2022/03/18 05:51:34;;;;;;;36.40;2.92;;;;;;;2.90;73.82;102667.88;4986118;28;20074;-39
2022/03/18 05:54:01;;;;;;;15.23;2.90;;;;;;;2.87;72.82;102661.66;4982167;28;20124;-44
2022/03/18 05:59:17;;;;;;;20.60;2.42;;;;;;;2.82;73.00;102675.03;4982044;28;20105;-42
2022/03/18 06:01:44;;;;;;;9.27;2.10;;;;;;;2.80;73.62;102676.56;4983877;28;20054;-43
2022/03/18 06:04:11;;;;;;;9.75;1.90;;;;;;;2.79;73.38;102674.81;4979142;28;20053;-43
2022/03/18 06:06:39;;;;;;;8.38;1.65;;;;;;;2.78;73.18;102683.28;4984532;28;20046;-48
2022/03/18 06:11:53;;;;;;;40.40;2.50;;;;;;;2.75;72.91;102695.84;4980914;28;20117;-44
2022/03/18 06:14:22;;;;;;;20.38;2.65;;;;;;;2.69;73.63;102697.94;4980175;28;20501;-42
2022/03/18 06:16:51;;;;;;;11.68;2.35;;;;;;;2.66;73.47;102690.03;4984835;28;20050;-45
2022/03/18 06:19:20;;;;;;;11.20;2.47;;;;;;;2.57;73.86;102698.81;4979261;28;20069;-45
2022/03/18 06:21:47;;;;;;;14.10;2.13;;;;;;;2.54;73.15;102695.16;4979356;28;20050;-45
2022/03/18 06:24:15;;;;;;;13.07;2.00;;;;;;;2.54;73.58;102696.03;4986247;28;20384;-47
2022/03/18 06:26:42;;;;;;;17.55;2.30;;;;;;;2.47;73.60;102691.28;4980107;28;20411;-46
2022/03/18 06:29:10;;;;;;;13.40;2.58;;;;;;;2.45;73.48;102687.69;4983743;28;20058;-43
2022/03/18 06:31:37;;;;;;;16.90;3.38;;;;;;;2.42;72.79;102684.91;4986092;28;20652;-42
2022/03/18 06:34:04;;;;;;;5.40;1.95;;;;;;;2.36;73.61;102685.34;4979014;28;20052;-46
2022/03/18 06:36:31;;;;;;;4.15;2.33;;;;;;;2.37;73.23;102691.38;4985530;28;20042;-45
2022/03/18 06:38:57;;;;;;;6.88;2.30;;;;;;;2.43;72.52;102691.81;4983521;28;20105;-46
2022/03/18 06:41:25;;;;;;;15.05;2.70;;;;;;;2.49;73.24;102684.59;4982978;28;20499;-42
2022/03/18 06:43:51;;;;;;;10.00;2.17;;;;;;;2.57;73.41;102688.59;4982815;28;20050;-43
2022/03/18 06:46:19;;;;;;;15.18;2.95;;;;;;;2.65;72.83;102683.16;4981589;28;20049;-42
2022/03/18 06:48:45;;;;;;;23.95;2.58;;;;;;;2.73;73.82;102684.59;4982309;28;20054;-42
2022/03/18 06:51:12;;;;;;;12.05;2.38;;;;;;;2.82;72.43;102684.38;4983743;28;20050;-43
2022/03/18 06:53:39;;;;;;;29.67;2.60;;;;;;;2.89;72.96;102681.47;4983218;28;20113;-48
2022/03/18 06:56:05;;;;;;;34.90;3.17;;;;;;;2.99;73.07;102682.09;4982479;28;20054;-47
2022/03/18 06:58:33;;;;;;;22.60;3.20;;;;;;;3.09;73.08;102689.69;4982410;28;20110;-42
2022/03/18 07:00:59;;;;;;;20.80;2.92;;;;;;;3.11;73.38;102682.09;4980582;28;20070;-42
2022/03/18 07:03:27;;;;;;;13.90;2.25;;;;;;;3.12;73.34;102673.63;4981031;28;20055;-46
2022/03/18 07:05:54;;;;;;;16.58;3.28;;;;;;;3.22;72.84;102678.63;4986356;28;20113;-43
2022/03/18 07:08:21;;;;;;;34.35;3.50;;;;;;;3.28;72.51;102676.47;4980978;28;20046;-46
2022/03/18 07:10:48;;;;;;;20.23;2.97;;;;;;;3.28;73.04;102681.59;4981313;28;20071;-42
2022/03/18 07:13:15;;;;;;;20.83;2.47;;;;;;;3.38;72.32;102682.25;4982024;28;20592;-46
2022/03/18 07:15:42;;;;;;;36.33;3.08;;;;;;;3.43;72.94;102691.13;4982617;28;20406;-44
2022/03/18 07:18:09;;;;;;;49.17;3.60;;;;;;;3.52;72.97;102690.91;4983472;28;20050;-41
2022/03/18 07:20:37;;;;;;;24.40;4.38;;;;;;;3.62;72.38;102690.75;4977224;28;20569;-45
2022/03/18 07:25:58;;;;;;;24.02;4.28;;;;;;;4.01;71.97;102690.78;5108386;27;20421;-45
2022/03/18 07:28:24;;;;;;;32.50;3.70;;;;;;;4.21;72.32;102693.78;5100417;28;20108;-45
2022/03/18 07:30:51;;;;;;;20.52;3.72;;;;;;;4.41;71.69;102701.91;5099552;28;20449;-43
2022/03/18 07:33:18;;;;;;;19.70;2.58;;;;;;;4.55;71.50;102696.00;5100306;28;20519;-47
2022/03/18 07:35:44;;;;;;;21.35;3.20;;;;;;;4.87;71.33;102702.31;5100551;28;20065;-49
2022/03/18 07:38:11;;;;;;;18.77;3.45;;;;;;;5.27;71.11;102697.91;5081117;28;20740;-47
2022/03/18 07:40:39;;;;;;;21.05;3.25;;;;;;;5.74;71.50;102700.72;5075184;28;20106;-42
2022/03/18 07:43:06;;;;;;;19.23;5.47;;;;;;;6.24;70.73;102701.06;5088974;28;20470;-47
2022/03/18 07:45:35;;;;;;;25.65;5.53;;;;;;;6.87;70.17;102713.16;5115092;27;20410;-45
2022/03/18 07:48:04;;;;;;;17.40;3.58;;;;;;;7.68;69.97;102723.53;5095585;28;20086;-48
2022/03/18 07:50:33;;;;;;;13.23;2.33;;;;;;;8.35;67.71;102723.41;5099001;27;20052;-49
2022/03/18 07:53:02;;;;;;;15.15;2.35;;;;;;;8.95;67.14;102737.50;5118508;27;20108;-45
2022/03/18 07:55:30;;;;;;;13.27;3.35;;;;;;;9.37;65.51;102734.25;5096004;28;20565;-50
2022/03/18 07:57:58;;;;;;;13.35;2.72;;;;;;;9.76;64.83;102747.19;5124370;27;20063;-47
2022/03/18 08:00:25;;;;;;;8.25;2.35;;;;;;;10.24;64.46;102738.00;5113028;27;20109;-50
2022/03/18 08:02:53;;;;;;;4.63;2.08;;;;;;;10.77;63.31;102747.94;5114212;27;20100;-45
2022/03/18 08:05:20;;;;;;;9.30;2.30;;;;;;;11.26;62.63;102758.47;5114490;28;20043;-47
2022/03/18 08:07:53;;;;;;;4.45;2.25;;;;;;;11.73;62.04;102760.19;5104434;28;20047;-44
2022/03/18 08:10:20;;;;;;;4.60;2.40;;;;;;;12.24;60.43;102763.69;5114442;27;20056;-45
2022/03/18 08:12:48;;;;;;;4.35;2.30;;;;;;;12.81;60.52;102775.09;5116657;27;20120;-52
2022/03/18 08:15:16;;;;;;;7.07;2.00;;;;;;;13.35;59.70;102773.22;5114220;27;20060;-52
2022/03/18 08:17:43;;;;;;;6.05;2.28;;;;;;;14.02;58.04;102784.69;5103255;28;20133;-48
2022/03/18 08:20:13;;;;;;;13.77;2.47;;;;;;;14.73;57.90;102779.47;5117062;27;20100;-49
2022/03/18 08:22:40;;;;;;;5.80;2.60;;;;;;;15.44;56.96;102794.97;5121816;27;20035;-45
2022/03/18 08:25:08;;;;;;;6.20;2.67;;;;;;;15.99;56.20;102799.56;5118850;27;20047;-50
2022/03/18 08:27:36;;;;;;;11.30;4.82;;;;;;;16.44;55.13;102803.88;5121033;27;20411;-48
2022/03/18 08:30:05;;;;;;;10.57;3.15;;;;;;;16.90;54.49;102817.66;5117800;27;20062;-48
2022/03/18 08:32:35;;;;;;;7.13;3.50;;;;;;;17.24;53.26;102818.19;5098849;27;20051;-46
2022/03/18 08:35:03;;;;;;;10.13;3.03;;;;;;;17.32;52.80;102820.88;5118686;27;20047;-50
2022/03/18 08:38:00;;;;;;;5.97;2.97;;;;;;;17.29;52.60;102826.13;5105235;27;20044;-47
2022/03/18 08:40:16;;;;;;;6.75;3.08;;;;;;;17.44;53.36;102830.66;5096242;28;20055;-48
2022/03/18 08:42:42;;;;;;;9.07;3.42;;;;;;;17.78;52.91;102835.44;5098125;28;20088;-47
2022/03/18 08:45:09;;;;;;;6.95;3.33;;;;;;;18.29;51.65;102832.50;5096725;27;20686;-48
2022/03/18 08:47:36;;;;;;;7.78;3.95;;;;;;;18.74;51.47;102836.38;5093667;28;20052;-49
2022/03/18 08:50:04;;;;;;;10.32;3.63;;;;;;;19.02;50.18;102836.56;5096938;27;20552;-51
2022/03/18 08:52:31;;;;;;;8.48;3.50;;;;;;;19.05;49.86;102840.09;5094690;27;20052;-52
2022/03/18 08:55:03;;;;;;;12.32;3.67;;;;;;;19.31;49.97;102852.53;5083486;28;20044;-51
2022/03/18 08:57:33;;;;;;;9.75;3.72;;;;;;;19.72;49.40;102851.84;5096566;27;20117;-52
2022/03/18 09:00:00;;;;;;;9.10;3.80;;;;;;;20.10;47.96;102865.16;5095096;27;20052;-51
2022/03/18 09:02:27;;;;;;;11.55;3.50;;;;;;;20.55;47.53;102873.09;5102876;28;20073;-50
2022/03/18 09:04:54;;;;;;;10.23;4.03;;;;;;;21.05;46.75;102873.94;5100871;28;20039;-53
2022/03/18 09:07:20;;;;;;;10.82;4.00;;;;;;;21.44;45.43;102870.34;5098196;28;20052;-49
2022/03/18 09:09:47;;;;;;;10.02;3.65;;;;;;;21.89;44.34;102880.72;5099882;28;20082;-51
2022/03/18 09:12:16;;;;;;;9.23;4.03;;;;;;;22.16;42.49;102885.88;5099264;27;20522;-47
2022/03/18 09:14:44;;;;;;;11.70;4.97;;;;;;;22.23;42.77;102884.94;5104277;27;20307;-46
2022/03/18 09:17:11;;;;;;;10.57;4.50;;;;;;;22.55;42.03;102889.09;5107044;28;20051;-48
2022/03/18 09:19:37;;;;;;;8.65;3.90;;;;;;;22.80;42.04;102883.63;5088769;28;20120;-50
2022/03/18 09:22:05;;;;;;;11.02;3.92;;;;;;;23.10;41.54;102896.59;5085569;27;20054;-47
2022/03/18 09:24:34;;;;;;;13.10;4.20;;;;;;;23.30;40.33;102893.69;5103947;27;20124;-46
2022/03/18 09:27:01;;;;;;;13.00;4.57;;;;;;;23.24;40.02;102891.16;5100826;27;20096;-45
2022/03/18 09:29:27;;;;;;;16.13;4.38;;;;;;;23.33;39.84;102901.59;5095991;28;20048;-49
2022/03/18 09:31:54;;;;;;;10.80;3.88;;;;;;;23.43;40.00;102898.88;5096744;27;20137;-51
2022/03/18 09:34:24;;;;;;;12.50;4.25;;;;;;;23.66;39.64;102900.38;5083225;28;20448;-48
2022/03/18 09:36:52;;;;;;;;;;;;;;;23.61;37.57;102897.81;5105983;28;20044;-47
2022/03/18 09:39:36;;;;;;;10.63;4.88;;;;;;;23.88;39.14;102896.53;5104275;27;19922;-46
2022/03/18 09:42:21;;;;;;;13.55;4.50;;;;;;;23.99;38.69;102896.41;5104958;27;20108;-51
2022/03/18 09:44:48;;;;;;;11.23;4.65;;;;;;;24.07;37.69;102895.41;5103494;28;20832;-47
2022/03/18 09:47:15;;;;;;;14.15;4.10;;;;;;;24.11;37.68;102894.47;5106611;27;20055;-49
2022/03/18 09:49:45;;;;;;;11.18;4.53;;;;;;;24.11;37.22;102897.09;5102717;28;20040;-50
2022/03/18 09:52:12;;;;;;;;;;;;;;;24.35;37.34;102906.50;5099758;27;20056;-46
2022/03/18 09:54:38;;;;;;;12.90;4.82;;;;;;;24.34;37.77;102896.81;5103343;27;19928;-49
2022/03/18 09:57:05;;;;;;;13.70;4.70;;;;;;;24.34;37.44;102903.88;5102759;28;20056;-46
2022/03/18 09:59:32;;;;;;;12.70;4.72;;;;;;;24.51;37.45;102895.66;5104835;27;20105;-50
2022/03/18 10:04:59;;;;;;;16.27;6.18;;;;;;;24.74;35.91;102911.19;4999674;28;20412;-45
2022/03/18 10:07:27;;;;;;;15.18;6.32;;;;;;;24.76;36.58;102908.50;4997489;28;20050;-53
2022/03/18 10:13:00;;;;;;;9.80;4.68;;;;;;;24.57;36.42;102898.22;5141644;27;20390;-51
2022/03/18 10:15:27;;;;;;;15.10;3.90;;;;;;;24.65;36.96;102903.38;5091296;28;20062;-53
2022/03/18 10:17:56;;;;;;;11.23;4.40;;;;;;;24.74;35.93;102902.34;5107531;28;20046;-51
2022/03/18 10:30:50;;;;;;;12.15;4.35;;;;;;;22.56;37.47;102906.72;5065189;27;20399;-47
2022/03/18 10:33:16;;;;;;;13.43;3.75;;;;;;;22.25;38.19;102901.63;5046865;28;20053;-54
2022/03/18 10:41:08;;;;;;;13.35;3.67;;;;;;;20.94;40.25;102904.72;5045437;27;20416;-53
2022/03/18 10:46:27;;;;;;;12.52;4.57;;;;;;;20.02;41.60;102900.19;5031798;27;20403;-50
2022/03/18 10:49:12;;;;;;;9.65;4.80;;;;;;;19.90;42.00;102897.50;5022943;28;20085;-48
2022/03/18 10:51:38;;;;;;;11.95;5.05;;;;;;;19.25;42.72;102895.44;5022751;28;20532;-46
2022/03/18 10:54:05;;;;;;;11.27;3.58;;;;;;;18.94;43.14;102906.56;5021391;28;20054;-50
2022/03/18 10:56:53;;;;;;;12.18;4.25;;;;;;;18.42;43.71;102901.72;5025635;28;20054;-48
2022/03/18 16:37:06;;;;;;;3.80;1.58;;;;;;;14.17;47.31;102786.78;5044257;27;20420;-48
2022/03/18 16:39:33;;;;;;;3.42;1.55;;;;;;;14.12;46.67;102778.84;5010155;28;20050;-42
2022/03/18 16:42:00;;;;;;;2.33;1.15;;;;;;;14.08;47.44;102779.59;5019426;28;20080;-48
2022/03/18 16:44:26;;;;;;;3.47;1.70;;;;;;;14.07;47.43;102787.38;5025730;28;20045;-45
2022/03/18 16:49:39;;;;;;;8.00;1.70;;;;;;;13.95;46.59;102793.16;5019189;28;20053;-45
2022/03/18 16:52:06;;;;;;;6.35;1.35;;;;;;;13.92;47.49;102783.53;5020710;28;20100;-47
2022/03/18 16:54:33;;;;;;;2.40;0.90;;;;;;;13.91;47.11;102786.97;5021277;28;20137;-44
2022/03/18 16:57:00;;;;;;;4.68;1.30;;;;;;;13.81;47.44;102788.44;5021653;28;20128;-46
2022/03/18 16:59:26;;;;;;;6.35;1.70;;;;;;;13.77;47.75;102788.34;5023423;28;20049;-43
2022/03/18 17:01:53;;;;;;;6.63;1.55;;;;;;;13.72;48.01;102790.81;5020183;28;20046;-44
2022/03/18 17:04:24;;;;;;;5.45;1.27;;;;;;;13.64;48.70;102790.56;5018569;28;20065;-48
2022/03/18 17:06:54;;;;;;;6.82;1.67;;;;;;;13.57;48.78;102799.94;5018594;28;20053;-44
2022/03/18 17:09:23;;;;;;;;;;;;;;;13.42;48.95;102791.63;5017032;28;20045;-44
2022/03/18 17:11:50;;;;;;;8.35;1.10;;;;;;;13.42;48.62;102786.44;5021195;28;19953;-50
2022/03/18 17:14:17;;;;;;;4.35;1.40;;;;;;;13.39;48.87;102787.22;5000020;28;20547;-43
2022/03/18 17:16:44;;;;;;;4.60;2.03;;;;;;;13.39;48.43;102786.34;5020937;28;20083;-46
2022/03/18 17:19:11;;;;;;;7.60;1.52;;;;;;;13.33;49.57;102795.75;5020495;28;20045;-46
2022/03/18 17:21:38;;;;;;;3.25;0.80;;;;;;;13.24;49.28;102798.03;5020266;28;20095;-47
2022/03/18 17:24:05;;;;;;;3.67;1.13;;;;;;;13.27;48.44;102792.94;5021160;28;20444;-47
2022/03/18 17:26:34;;;;;;;6.10;1.08;;;;;;;13.20;49.30;102793.59;5034908;28;20045;-45
2022/03/18 17:29:01;;;;;;;4.35;0.90;;;;;;;13.15;49.78;102792.56;5017602;28;20053;-46
2022/03/18 17:31:29;;;;;;;8.85;1.50;;;;;;;13.10;50.63;102795.91;5027494;28;21601;-44
2022/03/18 17:33:56;;;;;;;3.95;1.63;;;;;;;13.04;50.68;102795.72;5017118;28;20123;-47
2022/03/18 17:36:23;;;;;;;6.75;1.92;;;;;;;12.99;50.80;102797.31;5015828;28;20049;-49
2022/03/18 17:38:49;;;;;;;10.23;1.80;;;;;;;12.96;50.78;102797.19;5017452;28;20057;-50
2022/03/18 17:41:16;;;;;;;4.80;1.95;;;;;;;12.92;49.77;102809.25;5018027;28;20678;-44
2022/03/18 17:43:43;;;;;;;3.80;1.35;;;;;;;12.87;50.11;102807.31;5020241;28;20052;-43
2022/03/18 17:46:12;;;;;;;7.78;1.60;;;;;;;12.80;51.32;102808.84;5034067;28;20590;-48
2022/03/18 17:48:41;;;;;;;7.45;1.40;;;;;;;12.77;51.04;102809.59;5007824;28;20609;-46
2022/03/18 17:51:09;;;;;;;6.70;1.90;;;;;;;12.71;51.41;102809.44;5009501;28;20438;-46